Time;durP1;ratioP1;P1;durP2;ratioP2;P2;SDS_P1;SDS_P2;PMS_P1;PMS_P2;Temp;Humidity;BMP_temperature;BMP_pressure;BME280_temperature;BME280_humidity;BME280_pressure;Samples;Min_cycle;Max_cycle;Signal;HPM_P1;HPM_P2
2021/01/02 00:00:53;;;;;;;58.55;23.77;;;;;;;3.10;96.12;101256.59;5042465;28;20085;-82
2021/01/02 00:03:46;;;;;;;53.03;23.65;;;;;;;3.06;95.92;101258.06;5043315;28;20088;-81
2021/01/02 00:06:27;;;;;;;50.87;20.97;;;;;;;3.06;96.30;101247.06;5051518;28;20029;-78
2021/01/02 00:09:00;;;;;;;58.53;23.60;;;;;;;3.11;96.00;101256.69;5045082;28;20376;-79
2021/01/02 00:11:59;;;;;;;58.47;22.90;;;;;;;3.09;96.02;101253.19;5047431;28;20041;-78
2021/01/02 00:14:50;;;;;;;59.13;23.50;;;;;;;3.10;95.75;101254.94;5054663;28;20123;-79
2021/01/02 00:17:35;;;;;;;54.83;23.40;;;;;;;3.10;95.84;101254.06;5042667;28;20048;-79
2021/01/02 00:20:14;;;;;;;49.97;23.50;;;;;;;3.10;95.81;101252.41;5049273;28;20036;-79
2021/01/02 00:22:50;;;;;;;47.63;23.53;;;;;;;3.12;95.52;101258.44;5049206;28;20087;-81
2021/01/02 00:25:17;;;;;;;51.08;23.30;;;;;;;3.13;95.46;101255.13;5053509;28;20055;-80
2021/01/02 00:28:01;;;;;;;;;;;;;;;3.16;95.29;101266.22;5054224;28;20104;-79
2021/01/02 00:30:53;;;;;;;52.37;22.70;;;;;;;3.15;95.33;101252.66;5052198;28;19924;-80
2021/01/02 00:33:27;;;;;;;47.80;23.07;;;;;;;3.13;95.48;101254.25;5046075;28;20028;-79
2021/01/02 00:36:05;;;;;;;53.30;23.60;;;;;;;3.15;95.38;101252.66;5058971;28;20028;-81
2021/01/02 00:38:34;;;;;;;50.87;23.23;;;;;;;3.13;95.58;101255.13;5048946;28;20022;-80
2021/01/02 00:40:59;;;;;;;55.60;23.50;;;;;;;3.19;95.36;101249.53;5056032;28;20099;-80
2021/01/02 00:43:25;;;;;;;52.13;24.42;;;;;;;3.17;95.76;101245.13;5057869;28;20454;-82
2021/01/02 00:45:50;;;;;;;54.17;24.57;;;;;;;3.13;95.46;101246.63;5057250;28;20025;-80
2021/01/02 00:48:15;;;;;;;55.77;23.77;;;;;;;3.07;95.66;101252.22;5064379;28;20475;-80
2021/01/02 00:50:41;;;;;;;54.83;24.77;;;;;;;3.06;95.92;101254.66;5055517;28;20056;-81
2021/01/02 00:53:37;;;;;;;59.13;24.95;;;;;;;3.07;95.60;101259.81;5051398;28;20070;-80
2021/01/02 00:56:29;;;;;;;51.77;24.10;;;;;;;3.08;95.58;101258.16;5052649;28;20051;-80
2021/01/02 00:59:22;;;;;;;49.27;24.03;;;;;;;3.08;95.43;101261.59;5052330;28;20029;-78
2021/01/02 01:02:16;;;;;;;53.00;24.23;;;;;;;3.07;95.49;101262.38;5059634;28;20411;-79
2021/01/02 01:05:03;;;;;;;53.50;24.20;;;;;;;3.03;95.39;101268.03;5022765;28;20550;-79
2021/01/02 01:07:32;;;;;;;46.80;21.67;;;;;;;2.97;95.31;101265.16;5044157;28;20033;-81
2021/01/02 01:10:00;;;;;;;48.80;22.30;;;;;;;2.98;95.55;101261.81;5054725;28;20053;-81
2021/01/02 01:12:28;;;;;;;54.90;24.03;;;;;;;2.96;95.57;101275.19;5053517;28;20548;-80
2021/01/02 01:14:54;;;;;;;53.80;23.10;;;;;;;2.93;95.56;101275.91;5051515;28;20075;-81
2021/01/02 01:17:22;;;;;;;47.10;21.23;;;;;;;2.91;95.62;101269.81;5060884;28;20021;-79
2021/01/02 01:19:57;;;;;;;53.93;22.97;;;;;;;2.98;95.30;101276.16;5055229;28;20020;-79
2021/01/02 01:22:26;;;;;;;52.17;22.70;;;;;;;2.90;95.61;101274.81;5045193;28;20025;-81
2021/01/02 01:25:00;;;;;;;51.57;23.47;;;;;;;2.95;95.53;101271.78;5048420;28;20036;-81
2021/01/02 01:28:01;;;;;;;52.43;22.97;;;;;;;2.94;95.63;101281.84;5056961;28;20025;-81
2021/01/02 01:30:38;;;;;;;50.80;22.63;;;;;;;2.90;95.74;101277.34;4990019;28;20407;-81
2021/01/02 01:33:04;;;;;;;48.63;23.57;;;;;;;2.88;95.65;101276.38;5051587;28;20060;-79
2021/01/02 01:35:30;;;;;;;56.55;24.25;;;;;;;2.85;95.79;101277.06;5062823;28;20502;-80
2021/01/02 01:37:57;;;;;;;54.05;23.75;;;;;;;2.80;95.85;101280.97;5050573;28;20560;-80
2021/01/02 01:40:24;;;;;;;46.13;21.43;;;;;;;2.83;96.00;101290.44;5056063;28;20029;-81
2021/01/02 01:43:02;;;;;;;53.67;22.60;;;;;;;2.85;95.69;101286.34;5048087;28;20024;-81
2021/01/02 01:45:37;;;;;;;47.50;21.53;;;;;;;2.77;95.69;101289.28;5061193;28;20024;-80
2021/01/02 01:48:08;;;;;;;49.63;22.57;;;;;;;2.79;95.99;101289.38;5059342;28;20036;-79
2021/01/02 01:51:02;;;;;;;46.60;22.13;;;;;;;2.76;95.88;101284.13;5044227;28;20028;-80
2021/01/02 01:53:37;;;;;;;46.83;23.00;;;;;;;2.82;95.83;101287.03;5060645;28;20021;-80
2021/01/02 01:56:09;;;;;;;47.87;21.60;;;;;;;2.79;95.94;101286.84;5058292;28;20092;-80
2021/01/02 01:58:42;;;;;;;54.10;24.00;;;;;;;2.76;95.93;101287.53;5044062;28;20109;-81
2021/01/02 02:01:08;;;;;;;49.90;22.57;;;;;;;2.72;95.99;101284.72;5046794;28;20018;-81
2021/01/02 02:03:46;;;;;;;48.33;22.75;;;;;;;2.70;95.97;101286.28;5044426;28;20509;-80
2021/01/02 02:06:27;;;;;;;45.23;22.77;;;;;;;2.72;96.07;101289.78;5049045;28;20048;-78
2021/01/02 02:08:58;;;;;;;48.80;22.93;;;;;;;2.64;95.92;101296.06;5045454;28;20032;-79
2021/01/02 02:11:46;;;;;;;47.27;22.27;;;;;;;2.62;95.83;101292.53;5038549;28;20044;-80
2021/01/02 02:14:26;;;;;;;47.17;21.30;;;;;;;2.58;95.98;101295.63;5043914;28;20033;-80
2021/01/02 02:17:02;;;;;;;42.77;20.60;;;;;;;2.55;95.95;101293.78;5047149;28;20029;-80
2021/01/02 02:19:55;;;;;;;45.00;22.27;;;;;;;2.48;96.22;101292.53;5053945;28;20021;-79
2021/01/02 02:22:26;;;;;;;45.33;21.10;;;;;;;2.44;96.13;101293.13;5046135;28;20097;-79
2021/01/02 02:24:53;;;;;;;44.97;22.80;;;;;;;2.44;96.01;101297.31;5040501;28;20030;-79
2021/01/02 02:27:29;;;;;;;53.23;24.03;;;;;;;2.42;96.29;101294.69;5047377;28;20064;-80
2021/01/02 02:30:09;;;;;;;52.38;24.40;;;;;;;2.44;96.24;101290.59;5053899;28;20029;-80
2021/01/02 02:32:40;;;;;;;61.60;25.47;;;;;;;2.61;96.47;101285.72;5052308;28;20024;-81
2021/01/02 02:35:11;;;;;;;59.80;26.07;;;;;;;2.61;96.37;101278.09;5038209;28;20104;-80
2021/01/02 02:37:45;;;;;;;59.00;25.20;;;;;;;2.65;96.67;101287.66;5036908;28;20044;-83
2021/01/02 02:40:12;;;;;;;52.83;23.73;;;;;;;2.76;96.58;101289.19;5038782;28;20380;-83
2021/01/02 02:42:43;;;;;;;55.90;26.10;;;;;;;2.74;96.85;101294.16;5042067;28;20033;-80
2021/01/02 02:45:12;;;;;;;57.20;26.00;;;;;;;2.73;96.74;101297.50;5054487;28;20035;-80
2021/01/02 02:47:41;;;;;;;59.70;27.20;;;;;;;2.77;96.62;101294.34;5027289;28;20044;-80
2021/01/02 02:50:27;;;;;;;57.63;26.23;;;;;;;2.81;96.65;101298.84;5040399;28;20021;-80
2021/01/02 02:53:09;;;;;;;43.87;19.67;;;;;;;2.80;96.57;101288.59;5047486;28;20107;-80
2021/01/02 02:55:36;;;;;;;55.10;26.43;;;;;;;2.86;96.41;101294.03;5043357;28;20650;-80
2021/01/02 02:58:01;;;;;;;50.97;23.80;;;;;;;2.81;96.42;101290.34;5047603;28;20044;-79
2021/01/02 03:00:27;;;;;;;57.53;25.25;;;;;;;2.81;96.20;101291.22;5049907;28;20414;-81
2021/01/02 03:02:52;;;;;;;57.57;27.77;;;;;;;2.89;96.09;101294.22;5039797;28;20115;-82
2021/01/02 03:05:18;;;;;;;64.68;26.42;;;;;;;2.93;95.90;101290.25;5038891;28;20377;-80
2021/01/02 03:07:47;;;;;;;62.47;25.80;;;;;;;2.92;95.76;101293.53;5040375;28;20232;-80
2021/01/02 03:10:16;;;;;;;54.80;25.97;;;;;;;2.88;95.89;101297.53;5038233;28;20060;-80
2021/01/02 03:12:44;;;;;;;57.53;25.97;;;;;;;2.86;95.63;101299.13;5051938;28;20037;-79
2021/01/02 03:15:11;;;;;;;55.63;25.43;;;;;;;2.93;95.72;101296.19;5048627;28;20036;-80
2021/01/02 03:17:36;;;;;;;61.27;26.40;;;;;;;2.87;95.80;101297.44;5045567;28;20025;-80
2021/01/02 03:20:03;;;;;;;61.42;26.10;;;;;;;2.80;95.89;101304.69;5046555;28;20036;-83
2021/01/02 03:22:28;;;;;;;57.37;26.90;;;;;;;2.83;96.05;101304.00;5044484;28;20029;-82
2021/01/02 03:24:53;;;;;;;56.30;27.27;;;;;;;2.79;96.12;101302.06;5034100;28;20032;-79
2021/01/02 03:27:19;;;;;;;56.57;24.57;;;;;;;2.76;96.28;101296.81;5047531;28;20366;-77
2021/01/02 03:29:44;;;;;;;60.10;26.37;;;;;;;2.75;96.39;101295.03;5046515;28;20476;-79
2021/01/02 03:32:09;;;;;;;61.73;25.60;;;;;;;2.80;96.42;101293.66;5036807;28;20276;-77
2021/01/02 03:34:37;;;;;;;58.03;24.30;;;;;;;2.80;96.30;101304.69;5039540;28;20029;-78
2021/01/02 03:37:03;;;;;;;49.80;25.57;;;;;;;2.82;96.35;101299.72;5053150;28;20622;-83
2021/01/02 03:39:28;;;;;;;54.25;25.13;;;;;;;2.81;96.24;101295.41;5042417;28;20032;-80
2021/01/02 03:41:53;;;;;;;54.90;25.63;;;;;;;2.81;96.45;101300.50;5050112;28;20032;-77
2021/01/02 03:44:19;;;;;;;53.20;24.37;;;;;;;2.81;96.52;101293.75;5042721;28;20096;-77
2021/01/02 03:46:44;;;;;;;51.87;25.57;;;;;;;2.83;96.34;101290.44;5051928;28;20271;-78
2021/01/02 03:49:09;;;;;;;50.27;24.80;;;;;;;2.82;96.27;101294.63;5049306;28;20033;-80
2021/01/02 03:51:34;;;;;;;54.13;25.00;;;;;;;2.82;96.46;101294.63;5040401;28;20111;-78
2021/01/02 03:54:00;;;;;;;54.10;25.23;;;;;;;2.82;96.51;101297.16;5042414;28;20268;-80
2021/01/02 03:56:25;;;;;;;55.47;23.30;;;;;;;2.81;96.08;101298.84;5046605;28;20546;-79
2021/01/02 03:58:50;;;;;;;52.40;23.35;;;;;;;2.79;96.54;101297.00;5046566;28;20025;-78
2021/01/02 04:01:15;;;;;;;57.40;25.60;;;;;;;2.91;96.62;101295.19;5035294;28;20021;-78
2021/01/02 04:03:41;;;;;;;50.57;23.77;;;;;;;2.84;96.36;101300.69;5042930;28;20107;-80
2021/01/02 04:06:07;;;;;;;49.63;24.08;;;;;;;2.83;96.14;101298.94;5038095;28;20307;-81
2021/01/02 04:08:32;;;;;;;53.35;24.60;;;;;;;2.86;96.28;101295.69;5046594;28;20576;-80
2021/01/02 04:10:57;;;;;;;51.35;23.88;;;;;;;2.79;96.24;101294.44;5045940;28;20097;-80
2021/01/02 04:13:23;;;;;;;56.97;24.57;;;;;;;2.75;96.27;101293.38;5056818;28;20021;-78
2021/01/02 04:15:48;;;;;;;48.37;23.27;;;;;;;2.76;96.33;101299.34;5035177;28;20037;-77
2021/01/02 04:18:13;;;;;;;49.60;22.90;;;;;;;2.72;96.02;101305.00;5047514;28;20271;-82
2021/01/02 04:20:38;;;;;;;56.17;23.80;;;;;;;2.64;95.63;101296.94;5045296;28;20070;-77
2021/01/02 04:23:04;;;;;;;48.00;22.17;;;;;;;2.58;95.63;101295.63;5046723;28;20566;-79
2021/01/02 04:25:29;;;;;;;51.17;23.47;;;;;;;2.52;95.46;101302.88;5045648;28;20276;-78
2021/01/02 04:27:54;;;;;;;49.47;23.10;;;;;;;2.48;95.39;101301.81;5073326;22;20701;-80
2021/01/02 04:30:20;;;;;;;50.33;23.60;;;;;;;2.38;95.86;101305.41;5085195;28;20282;-79
2021/01/02 04:32:46;;;;;;;51.13;23.60;;;;;;;2.35;95.82;101307.75;5080131;28;20493;-79
2021/01/02 04:35:12;;;;;;;49.83;22.30;;;;;;;2.38;95.93;101313.03;5084766;28;20069;-78
2021/01/02 04:37:38;;;;;;;50.17;22.85;;;;;;;2.29;95.87;101302.31;5085987;28;20043;-79
2021/01/02 04:40:04;;;;;;;53.60;25.52;;;;;;;2.27;96.22;101311.44;5093025;28;20039;-79
2021/01/02 04:42:30;;;;;;;60.03;24.30;;;;;;;2.25;96.59;101305.41;5090117;28;20068;-78
2021/01/02 04:44:56;;;;;;;58.72;24.02;;;;;;;2.24;96.67;101306.19;5091862;28;20062;-79
2021/01/02 04:47:23;;;;;;;55.33;25.00;;;;;;;2.23;96.74;101301.88;5094692;28;20020;-79
2021/01/02 04:49:48;;;;;;;59.83;26.43;;;;;;;2.27;96.83;101308.91;5096203;28;20123;-79
2021/01/02 04:52:17;;;;;;;58.60;26.05;;;;;;;2.28;96.69;101305.63;5094819;28;20039;-78
2021/01/02 04:54:49;;;;;;;56.77;25.20;;;;;;;2.28;97.24;101309.81;5096209;28;20417;-79
2021/01/02 04:57:15;;;;;;;57.53;23.60;;;;;;;2.32;97.14;101312.63;5094401;28;20035;-77
2021/01/02 04:59:40;;;;;;;57.87;24.43;;;;;;;2.33;96.90;101310.97;5094868;28;20027;-79
2021/01/02 05:02:12;;;;;;;55.40;24.02;;;;;;;2.34;96.93;101316.16;5095737;28;20032;-79
2021/01/02 05:04:37;;;;;;;55.07;22.83;;;;;;;2.32;96.91;101317.72;5094632;28;20047;-79
2021/01/02 05:07:03;;;;;;;61.70;25.90;;;;;;;2.31;96.80;101323.56;5094332;28;20489;-79
2021/01/02 05:09:28;;;;;;;56.80;25.17;;;;;;;2.27;96.98;101313.97;5093701;28;20354;-79
2021/01/02 05:11:53;;;;;;;57.03;25.83;;;;;;;2.25;97.08;101320.59;5093945;28;20099;-79
2021/01/02 05:14:18;;;;;;;64.67;25.83;;;;;;;2.27;97.01;101321.56;5095338;28;20043;-78
2021/01/02 05:16:45;;;;;;;65.00;26.00;;;;;;;2.22;97.19;101320.41;5093762;28;20266;-79
2021/01/02 05:19:14;;;;;;;59.63;24.73;;;;;;;2.25;96.80;101322.25;5095236;28;20054;-78
2021/01/02 05:21:47;;;;;;;57.37;26.10;;;;;;;2.20;97.03;101314.38;5094276;28;20023;-79
2021/01/02 05:24:19;;;;;;;59.63;24.00;;;;;;;2.16;97.22;101322.56;5091611;28;20033;-78
2021/01/02 05:26:58;;;;;;;60.20;24.33;;;;;;;2.11;97.04;101326.44;5092212;28;20073;-78
2021/01/02 05:29:29;;;;;;;66.47;25.97;;;;;;;2.04;97.07;101324.31;5093271;28;20032;-79
2021/01/02 05:31:57;;;;;;;64.07;25.50;;;;;;;1.99;97.17;101330.72;5093369;28;20043;-79
2021/01/02 05:34:27;;;;;;;81.60;29.00;;;;;;;2.02;97.39;101336.00;5093241;28;20070;-78
2021/01/02 05:37:01;;;;;;;66.03;28.43;;;;;;;2.03;97.38;101337.75;5093699;28;20107;-79
2021/01/02 05:39:56;;;;;;;61.47;25.73;;;;;;;2.01;97.40;101339.31;5093024;28;20448;-78
2021/01/02 05:42:23;;;;;;;71.13;26.13;;;;;;;2.02;97.49;101341.06;5090521;28;20028;-79
2021/01/02 05:44:48;;;;;;;85.40;29.63;;;;;;;2.05;97.57;101339.59;5094039;28;20135;-79
2021/01/02 05:47:21;;;;;;;71.65;27.67;;;;;;;2.09;97.72;101338.16;5092801;28;20481;-78
2021/01/02 05:49:48;;;;;;;79.27;27.10;;;;;;;2.13;97.83;101342.63;5093029;28;20024;-78
2021/01/02 05:52:14;;;;;;;87.73;29.63;;;;;;;2.28;97.93;101336.03;5093596;28;20032;-78
2021/01/02 05:54:49;;;;;;;;;;;;;;;2.34;97.93;101326.28;5094168;28;20032;-78
2021/01/02 05:57:28;;;;;;;85.17;29.50;;;;;;;2.39;97.97;101330.00;5092013;28;20262;-76
2021/01/02 05:59:55;;;;;;;85.87;30.50;;;;;;;2.40;98.32;101335.94;5091281;28;20415;-77
2021/01/02 06:02:32;;;;;;;104.80;32.10;;;;;;;2.41;98.15;101330.97;5093027;28;20031;-79
2021/01/02 06:05:06;;;;;;;78.88;29.50;;;;;;;2.47;98.14;101333.88;5094475;28;20056;-78
2021/01/02 06:07:34;;;;;;;121.17;31.70;;;;;;;2.43;98.20;101342.09;5093965;28;20433;-78
2021/01/02 06:10:07;;;;;;;101.00;30.83;;;;;;;2.45;98.07;101345.59;5095198;28;20024;-79
2021/01/02 06:12:38;;;;;;;84.03;31.23;;;;;;;2.43;98.20;101341.22;5094354;28;20028;-79
2021/01/02 06:15:07;;;;;;;94.60;30.83;;;;;;;2.49;98.18;101339.06;5094069;28;20035;-79
2021/01/02 06:17:36;;;;;;;94.70;30.90;;;;;;;2.46;98.00;101343.94;5093695;28;20051;-79
2021/01/02 06:20:06;;;;;;;107.17;30.83;;;;;;;2.46;98.29;101337.19;5093620;28;20445;-78
2021/01/02 06:22:32;;;;;;;105.27;29.67;;;;;;;2.46;98.05;101347.34;5094117;28;20032;-79
2021/01/02 06:25:02;;;;;;;103.80;30.85;;;;;;;2.49;97.95;101337.41;5093885;28;20669;-78
2021/01/02 06:27:27;;;;;;;79.50;30.03;;;;;;;2.48;98.13;101345.78;5093370;28;20499;-79
2021/01/02 06:29:56;;;;;;;108.95;29.67;;;;;;;2.47;98.04;101349.09;5093906;28;20032;-78
2021/01/02 06:32:23;;;;;;;105.10;30.27;;;;;;;2.45;98.10;101349.78;5090507;28;20027;-78
2021/01/02 06:35:08;;;;;;;112.73;30.30;;;;;;;2.46;98.24;101341.41;5093358;28;20108;-79
2021/01/02 06:37:49;;;;;;;112.80;31.10;;;;;;;2.49;97.98;101347.53;5092940;28;20024;-79
2021/01/02 06:40:29;;;;;;;110.27;29.73;;;;;;;2.45;98.23;101350.66;5093349;28;20024;-79
2021/01/02 06:42:54;;;;;;;110.00;30.83;;;;;;;2.53;98.04;101347.72;5093824;28;20019;-78
2021/01/02 06:45:41;;;;;;;101.67;29.83;;;;;;;2.47;98.19;101361.78;5094444;28;20043;-78
2021/01/02 06:48:13;;;;;;;125.10;30.50;;;;;;;2.55;97.77;101358.84;5094991;28;20030;-80
2021/01/02 06:50:48;;;;;;;138.37;32.73;;;;;;;2.47;97.96;101355.81;5090503;28;20045;-78
2021/01/02 06:53:25;;;;;;;75.93;28.57;;;;;;;2.47;98.00;101359.25;5091437;28;20069;-78
2021/01/02 06:56:07;;;;;;;81.93;29.33;;;;;;;2.47;98.02;101354.16;5092629;28;20028;-79
2021/01/02 06:58:44;;;;;;;78.73;29.13;;;;;;;2.44;98.03;101358.16;5091770;28;20030;-80
2021/01/02 07:01:29;;;;;;;76.70;29.00;;;;;;;2.47;98.03;101359.25;5091516;28;20035;-78
2021/01/02 07:03:55;;;;;;;68.43;26.27;;;;;;;2.45;98.16;101359.94;5092757;28;20024;-78
2021/01/02 07:06:26;;;;;;;66.50;25.70;;;;;;;2.37;97.89;101359.44;5094412;28;20028;-79
2021/01/02 07:09:14;;;;;;;64.47;25.90;;;;;;;2.31;97.94;101365.78;5092304;28;20020;-78
2021/01/02 07:11:47;;;;;;;59.73;24.73;;;;;;;2.22;97.86;101366.03;5094312;28;20028;-79
2021/01/02 07:14:14;;;;;;;54.73;24.40;;;;;;;2.20;97.74;101362.53;5092950;28;20651;-79
2021/01/02 07:16:52;;;;;;;57.63;26.23;;;;;;;2.15;97.86;101371.47;5091574;28;20031;-79
2021/01/02 07:19:24;;;;;;;53.33;23.37;;;;;;;2.09;97.72;101368.56;5089736;28;20059;-78
2021/01/02 07:22:14;;;;;;;59.93;24.77;;;;;;;2.08;97.56;101371.88;5093676;28;20027;-79
2021/01/02 07:24:41;;;;;;;59.27;23.83;;;;;;;2.07;97.66;101377.72;5092262;28;20104;-79
2021/01/02 07:27:11;;;;;;;59.10;25.00;;;;;;;2.16;97.76;101381.72;5091877;28;20036;-80
2021/01/02 07:29:48;;;;;;;55.53;24.43;;;;;;;2.18;97.63;101376.75;5091866;28;20028;-78
2021/01/02 07:32:27;;;;;;;62.80;26.50;;;;;;;2.28;97.53;101384.22;5092129;28;20028;-79
2021/01/02 07:35:01;;;;;;;58.00;25.47;;;;;;;2.23;97.56;101380.47;5091936;28;20032;-79
2021/01/02 07:37:29;;;;;;;63.33;25.17;;;;;;;2.18;97.87;101380.16;5090568;28;20578;-79
2021/01/02 07:40:04;;;;;;;71.57;29.43;;;;;;;2.24;97.45;101382.22;5091829;28;20020;-78
2021/01/02 07:42:32;;;;;;;64.70;27.87;;;;;;;2.25;97.60;101388.16;5091106;28;20040;-79
2021/01/02 07:45:10;;;;;;;73.30;27.77;;;;;;;2.28;97.73;101391.81;5090812;28;20040;-79
2021/01/02 07:47:37;;;;;;;69.90;28.50;;;;;;;2.40;97.65;101396.78;5094685;28;20114;-79
2021/01/02 07:50:10;;;;;;;80.13;31.70;;;;;;;2.45;97.59;101401.38;5093417;28;20028;-79
2021/01/02 07:52:52;;;;;;;76.63;30.73;;;;;;;2.41;97.75;101408.69;5097300;28;20384;-79
2021/01/02 07:55:22;;;;;;;76.43;31.27;;;;;;;2.48;97.73;101408.28;5100012;28;20092;-80
2021/01/02 07:57:48;;;;;;;83.47;32.07;;;;;;;2.43;97.86;101410.53;5104363;28;20055;-80
2021/01/02 08:00:14;;;;;;;81.60;31.30;;;;;;;2.40;97.88;101407.81;5106845;28;20051;-81
2021/01/02 08:02:42;;;;;;;76.55;30.88;;;;;;;2.47;97.69;101415.03;5104813;28;20044;-79
2021/01/02 08:05:17;;;;;;;81.90;31.57;;;;;;;2.52;97.84;101419.50;5105186;28;20027;-80
2021/01/02 08:07:58;;;;;;;93.00;32.33;;;;;;;2.47;97.59;101429.38;5102768;28;20031;-80
2021/01/02 08:10:24;;;;;;;91.77;31.87;;;;;;;2.48;97.65;101442.13;5104083;28;20031;-80
2021/01/02 08:12:50;;;;;;;;;;;;;;;2.55;97.83;101443.41;5102978;28;20024;-80
2021/01/02 08:15:31;;;;;;;86.53;30.63;;;;;;;2.65;97.57;101442.38;5101393;28;20551;-80
2021/01/02 08:18:05;;;;;;;73.43;29.27;;;;;;;2.67;97.71;101438.28;5099241;28;20028;-79
2021/01/02 08:20:31;;;;;;;97.73;30.23;;;;;;;2.57;97.71;101436.78;5105671;28;20012;-79
2021/01/02 08:22:57;;;;;;;85.35;30.88;;;;;;;2.65;97.46;101439.84;5105897;28;20116;-79
2021/01/02 08:25:22;;;;;;;79.85;29.67;;;;;;;2.63;97.53;101441.41;5104317;28;20396;-79
2021/01/02 08:27:49;;;;;;;82.05;29.00;;;;;;;2.64;97.69;101433.00;5104274;28;20031;-79
2021/01/02 08:30:15;;;;;;;82.67;29.97;;;;;;;2.70;97.54;101433.41;5105574;28;20019;-80
2021/01/02 08:32:45;;;;;;;103.07;29.70;;;;;;;2.67;97.48;101439.16;5103064;28;20456;-80
2021/01/02 08:35:19;;;;;;;97.07;30.97;;;;;;;2.65;97.37;101439.84;5101493;28;20493;-79
2021/01/02 08:37:46;;;;;;;80.67;30.23;;;;;;;2.73;97.70;101444.63;5101632;28;20115;-79
2021/01/02 08:40:14;;;;;;;74.03;29.13;;;;;;;2.85;97.48;101444.50;5103004;28;20027;-80
2021/01/02 08:42:41;;;;;;;82.03;28.63;;;;;;;2.84;97.44;101446.97;5100922;28;20020;-79
2021/01/02 08:45:09;;;;;;;67.10;28.80;;;;;;;2.94;97.63;101449.31;5101627;28;20028;-79
2021/01/02 08:47:38;;;;;;;101.07;29.83;;;;;;;2.95;97.50;101446.88;5103207;28;20028;-78
2021/01/02 08:50:12;;;;;;;93.77;29.67;;;;;;;3.10;97.48;101445.31;5103827;28;20023;-81
2021/01/02 08:52:38;;;;;;;82.77;27.57;;;;;;;3.23;97.65;101444.41;5100339;28;20027;-80
2021/01/02 08:55:17;;;;;;;87.95;29.67;;;;;;;3.44;97.56;101443.19;5097778;28;20115;-78
2021/01/02 08:57:50;;;;;;;67.80;28.27;;;;;;;3.62;97.47;101438.38;5104428;28;20049;-80
2021/01/02 09:00:20;;;;;;;71.47;30.13;;;;;;;3.83;96.96;101440.44;5102101;28;20024;-78
2021/01/02 09:03:06;;;;;;;64.77;27.03;;;;;;;4.00;96.23;101440.69;5095931;28;20053;-78
2021/01/02 09:05:39;;;;;;;65.43;27.03;;;;;;;3.81;94.79;101444.56;5096261;28;20401;-77
2021/01/02 09:08:18;;;;;;;67.63;30.17;;;;;;;3.73;95.20;101444.97;5098296;28;20020;-78
2021/01/02 09:10:45;;;;;;;66.80;27.73;;;;;;;3.86;95.08;101453.34;5097003;28;20137;-76
2021/01/02 09:13:22;;;;;;;62.37;27.93;;;;;;;3.98;94.83;101446.47;5095633;28;20028;-78
2021/01/02 09:15:50;;;;;;;60.40;26.50;;;;;;;3.95;94.56;101446.28;5096595;28;20032;-79
2021/01/02 09:18:17;;;;;;;61.70;29.67;;;;;;;3.87;94.09;101450.88;5092842;28;20042;-80
2021/01/02 09:20:43;;;;;;;63.37;28.40;;;;;;;3.83;94.13;101445.53;5096107;28;20016;-78
2021/01/02 09:23:08;;;;;;;63.80;28.30;;;;;;;3.84;94.48;101447.28;5096260;28;20023;-78
2021/01/02 09:25:35;;;;;;;60.13;28.38;;;;;;;3.79;94.34;101453.75;5095292;28;20016;-80
2021/01/02 09:28:17;;;;;;;58.13;26.80;;;;;;;3.74;94.18;101451.81;5094351;28;20035;-79
2021/01/02 09:30:44;;;;;;;64.43;26.97;;;;;;;3.71;94.41;101454.19;5090585;28;20023;-79
2021/01/02 09:33:10;;;;;;;62.60;28.10;;;;;;;3.73;94.03;101459.34;5096026;28;20020;-78
2021/01/02 09:35:36;;;;;;;57.83;26.33;;;;;;;3.63;95.00;101468.09;5096054;28;20109;-77
2021/01/02 09:38:03;;;;;;;64.07;29.00;;;;;;;3.69;95.10;101473.53;5093626;28;20023;-77
2021/01/02 09:40:28;;;;;;;67.43;29.40;;;;;;;3.77;95.44;101468.03;5089270;28;20016;-78
2021/01/02 09:42:54;;;;;;;57.67;27.33;;;;;;;3.90;94.97;101475.59;5092830;28;20042;-78
2021/01/02 09:45:19;;;;;;;62.45;28.88;;;;;;;3.98;95.45;101470.22;5088879;28;20044;-78
2021/01/02 09:47:44;;;;;;;60.40;28.90;;;;;;;4.04;95.03;101467.16;5087851;28;20030;-78
2021/01/02 09:50:10;;;;;;;71.73;34.27;;;;;;;4.20;94.62;101472.34;5092913;28;20316;-78
2021/01/02 09:52:35;;;;;;;61.75;29.58;;;;;;;4.28;94.78;101462.66;5091134;28;20024;-77
2021/01/02 09:55:01;;;;;;;61.80;28.95;;;;;;;4.52;94.65;101474.25;5092625;28;20016;-78
2021/01/02 09:57:26;;;;;;;56.93;28.17;;;;;;;4.60;93.71;101477.25;5095538;28;20089;-78
2021/01/02 09:59:52;;;;;;;54.90;26.50;;;;;;;4.73;92.82;101483.91;5097847;28;20274;-78
2021/01/02 10:02:19;;;;;;;57.63;27.07;;;;;;;4.66;92.60;101481.03;5092191;28;20077;-78
2021/01/02 10:04:45;;;;;;;;;;;;;;;4.70;92.82;101479.53;5095081;28;20041;-78
2021/01/02 10:07:11;;;;;;;54.10;26.50;;;;;;;4.69;92.55;101477.78;5096608;28;19912;-77
2021/01/02 10:09:46;;;;;;;58.10;26.85;;;;;;;4.82;92.15;101476.78;5094553;28;21808;-78
2021/01/02 10:12:14;;;;;;;52.43;25.43;;;;;;;4.88;92.18;101475.50;5095968;28;20046;-77
2021/01/02 10:14:39;;;;;;;55.33;25.90;;;;;;;4.86;91.38;101471.94;5095705;28;20028;-79
2021/01/02 10:17:05;;;;;;;45.92;24.10;;;;;;;5.03;91.44;101477.13;5098087;28;20092;-79
2021/01/02 10:19:32;;;;;;;46.15;25.33;;;;;;;4.92;91.54;101471.44;5097051;28;20553;-78
2021/01/02 10:21:58;;;;;;;50.57;24.93;;;;;;;4.89;90.67;101471.28;5094060;28;20040;-78
2021/01/02 10:24:24;;;;;;;47.83;24.00;;;;;;;5.28;91.48;101472.59;5095354;28;20060;-79
2021/01/02 10:26:49;;;;;;;44.10;22.98;;;;;;;5.62;89.72;101466.00;5091636;28;20856;-78
2021/01/02 10:29:14;;;;;;;37.67;19.87;;;;;;;5.78;87.57;101474.44;5106682;28;20528;-77
2021/01/02 10:31:40;;;;;;;41.40;21.47;;;;;;;5.62;88.11;101473.63;5101579;28;20273;-79
2021/01/02 10:34:05;;;;;;;39.22;20.38;;;;;;;5.52;89.29;101467.94;5099629;28;20266;-79
2021/01/02 10:36:30;;;;;;;40.97;21.10;;;;;;;5.59;87.63;101470.94;5096076;28;20523;-78
2021/01/02 10:38:56;;;;;;;42.63;20.90;;;;;;;5.48;88.31;101481.31;5096631;28;20640;-78
2021/01/02 10:41:21;;;;;;;43.33;21.30;;;;;;;5.38;87.62;101474.84;5095481;28;20847;-80
2021/01/02 10:43:48;;;;;;;41.10;21.37;;;;;;;5.49;89.11;101473.75;5094812;28;20023;-79
2021/01/02 10:46:14;;;;;;;38.00;20.43;;;;;;;5.55;87.94;101474.13;5092026;28;20265;-79
2021/01/02 10:48:39;;;;;;;42.20;21.50;;;;;;;5.53;89.19;101475.69;5096579;28;20119;-79
2021/01/02 10:51:05;;;;;;;34.97;19.67;;;;;;;5.90;88.64;101470.03;5098637;28;20024;-79
2021/01/02 10:53:30;;;;;;;43.20;20.40;;;;;;;6.41;87.18;101469.28;5094769;28;20062;-78
2021/01/02 10:55:55;;;;;;;30.77;17.37;;;;;;;7.02;84.18;101462.06;5096036;28;20024;-78
2021/01/02 10:58:21;;;;;;;32.37;17.33;;;;;;;7.15;83.18;101463.50;5092963;28;20311;-79
2021/01/02 11:00:46;;;;;;;30.67;15.57;;;;;;;7.33;80.62;101463.50;5095610;28;20669;-79
2021/01/02 11:03:11;;;;;;;27.30;15.90;;;;;;;7.48;81.00;101464.25;5095418;28;20023;-79
2021/01/02 11:05:36;;;;;;;30.50;16.53;;;;;;;7.62;79.04;101463.19;5093710;28;20028;-79
2021/01/02 11:08:02;;;;;;;36.85;18.67;;;;;;;7.40;79.59;101458.75;5094733;28;20023;-78
2021/01/02 11:10:27;;;;;;;34.15;18.42;;;;;;;6.95;80.83;101464.25;5094362;28;20027;-78
2021/01/02 11:12:53;;;;;;;35.20;19.02;;;;;;;7.04;85.43;101469.81;5094518;28;20052;-79
2021/01/02 11:15:18;;;;;;;31.30;17.93;;;;;;;7.35;83.75;101461.91;5093612;28;20066;-80
2021/01/02 11:17:43;;;;;;;29.45;16.92;;;;;;;7.90;80.60;101456.75;5094770;28;20331;-79
2021/01/02 11:20:10;;;;;;;31.07;18.23;;;;;;;8.87;77.92;101453.22;5094148;28;20027;-79
2021/01/02 11:22:36;;;;;;;29.23;16.08;;;;;;;9.80;76.90;101453.38;5095986;28;20274;-79
2021/01/02 11:25:02;;;;;;;27.27;15.38;;;;;;;10.41;72.81;101447.88;5094153;28;20071;-79
2021/01/02 11:27:27;;;;;;;25.25;15.15;;;;;;;10.08;70.06;101440.72;5095219;28;20032;-78
2021/01/02 11:29:52;;;;;;;25.07;14.67;;;;;;;9.61;73.50;101441.56;5093452;28;20602;-79
2021/01/02 11:32:17;;;;;;;26.10;16.20;;;;;;;8.99;75.15;101442.59;5093181;28;20270;-79